Terminal Aerodrome Forecast
Issued by NWS

Home | Current Version | Previous Version | Text Only | Print | Product List | Glossary On
Versions: 1 2 3 4 5 6 7 8 9 10 11 12 13
255
FTUS43 KLSX 210520
TAFUIN
TAF
KUIN 210520Z 2106/2206 17010G16KT P6SM BKN250 WS015/19045KT
     FM211500 18015G25KT P6SM SCT200
     FM212100 17015G25KT P6SM BKN060=

USA.gov is the U.S. government's official web portal to all federal, state and local government web resources and services.